sensor_id;sensor_type;location;lat;lon;timestamp;temperature;humidity
16955;DHT22;8594;52.052;8.354;2024-02-15T00:00:20;12.90;99.90
16955;DHT22;8594;52.052;8.354;2024-02-15T00:02:48;12.80;99.90
16955;DHT22;8594;52.052;8.354;2024-02-15T00:05:16;12.70;99.90
16955;DHT22;8594;52.052;8.354;2024-02-15T00:07:43;12.80;99.90
16955;DHT22;8594;52.052;8.354;2024-02-15T00:10:12;12.80;99.90
16955;DHT22;8594;52.052;8.354;2024-02-15T00:12:39;12.80;99.90
16955;DHT22;8594;52.052;8.354;2024-02-15T00:15:06;12.90;99.90
16955;DHT22;8594;52.052;8.354;2024-02-15T00:17:34;12.90;99.90
16955;DHT22;8594;52.052;8.354;2024-02-15T00:20:01;12.90;99.90
16955;DHT22;8594;52.052;8.354;2024-02-15T00:22:31;12.90;99.90
16955;DHT22;8594;52.052;8.354;2024-02-15T00:24:58;12.90;99.90
16955;DHT22;8594;52.052;8.354;2024-02-15T00:27:24;12.80;99.90
16955;DHT22;8594;52.052;8.354;2024-02-15T00:29:51;12.90;99.90
16955;DHT22;8594;52.052;8.354;2024-02-15T00:32:18;12.90;99.90
16955;DHT22;8594;52.052;8.354;2024-02-15T00:34:45;12.90;99.90
16955;DHT22;8594;52.052;8.354;2024-02-15T00:37:12;12.80;99.90
16955;DHT22;8594;52.052;8.354;2024-02-15T00:39:40;12.80;99.90
16955;DHT22;8594;52.052;8.354;2024-02-15T00:42:07;12.70;99.90
16955;DHT22;8594;52.052;8.354;2024-02-15T00:44:34;12.70;99.90
16955;DHT22;8594;52.052;8.354;2024-02-15T00:47:01;12.70;99.90
16955;DHT22;8594;52.052;8.354;2024-02-15T00:49:27;12.70;99.90
16955;DHT22;8594;52.052;8.354;2024-02-15T00:51:54;12.80;99.90
16955;DHT22;8594;52.052;8.354;2024-02-15T00:54:21;12.90;99.90
16955;DHT22;8594;52.052;8.354;2024-02-15T00:56:50;12.80;99.90
16955;DHT22;8594;52.052;8.354;2024-02-15T00:59:17;12.80;99.90
16955;DHT22;8594;52.052;8.354;2024-02-15T01:01:44;12.80;99.90
16955;DHT22;8594;52.052;8.354;2024-02-15T01:04:12;12.70;99.90
16955;DHT22;8594;52.052;8.354;2024-02-15T01:06:38;12.60;99.90
16955;DHT22;8594;52.052;8.354;2024-02-15T01:09:06;12.70;99.90
16955;DHT22;8594;52.052;8.354;2024-02-15T01:11:33;12.70;99.90
16955;DHT22;8594;52.052;8.354;2024-02-15T01:14:03;12.60;99.90
16955;DHT22;8594;52.052;8.354;2024-02-15T01:16:30;12.60;99.90
16955;DHT22;8594;52.052;8.354;2024-02-15T01:18:57;12.60;99.90
16955;DHT22;8594;52.052;8.354;2024-02-15T01:21:23;12.50;99.90
16955;DHT22;8594;52.052;8.354;2024-02-15T01:23:50;12.50;99.90
16955;DHT22;8594;52.052;8.354;2024-02-15T01:26:19;12.60;99.90
16955;DHT22;8594;52.052;8.354;2024-02-15T01:28:46;12.60;99.90
16955;DHT22;8594;52.052;8.354;2024-02-15T01:31:15;12.80;99.90
16955;DHT22;8594;52.052;8.354;2024-02-15T01:33:43;12.80;99.90
16955;DHT22;8594;52.052;8.354;2024-02-15T01:36:13;12.80;99.90
16955;DHT22;8594;52.052;8.354;2024-02-15T01:38:41;12.80;99.90
16955;DHT22;8594;52.052;8.354;2024-02-15T01:41:09;12.90;99.90
16955;DHT22;8594;52.052;8.354;2024-02-15T01:43:36;12.80;99.90
16955;DHT22;8594;52.052;8.354;2024-02-15T01:46:08;12.70;99.90
16955;DHT22;8594;52.052;8.354;2024-02-15T01:48:37;12.60;99.90
16955;DHT22;8594;52.052;8.354;2024-02-15T01:51:07;12.60;99.90
16955;DHT22;8594;52.052;8.354;2024-02-15T01:53:35;12.50;99.90
16955;DHT22;8594;52.052;8.354;2024-02-15T01:56:03;12.50;99.90
16955;DHT22;8594;52.052;8.354;2024-02-15T01:58:31;12.60;99.90
16955;DHT22;8594;52.052;8.354;2024-02-15T02:01:00;12.60;99.90
16955;DHT22;8594;52.052;8.354;2024-02-15T02:03:27;12.70;99.90
16955;DHT22;8594;52.052;8.354;2024-02-15T02:05:55;12.70;99.90
16955;DHT22;8594;52.052;8.354;2024-02-15T02:08:22;12.70;99.90
16955;DHT22;8594;52.052;8.354;2024-02-15T02:10:50;12.80;99.90
16955;DHT22;8594;52.052;8.354;2024-02-15T02:13:17;12.80;99.90
16955;DHT22;8594;52.052;8.354;2024-02-15T02:15:44;12.80;99.90
16955;DHT22;8594;52.052;8.354;2024-02-15T02:18:11;12.70;99.90
16955;DHT22;8594;52.052;8.354;2024-02-15T02:20:37;12.60;99.90
16955;DHT22;8594;52.052;8.354;2024-02-15T02:23:08;12.60;99.90
16955;DHT22;8594;52.052;8.354;2024-02-15T02:25:41;12.70;99.90
16955;DHT22;8594;52.052;8.354;2024-02-15T02:28:11;12.80;99.90
16955;DHT22;8594;52.052;8.354;2024-02-15T02:30:39;12.80;99.90
16955;DHT22;8594;52.052;8.354;2024-02-15T02:33:10;12.80;99.90
16955;DHT22;8594;52.052;8.354;2024-02-15T02:35:43;12.70;99.90
16955;DHT22;8594;52.052;8.354;2024-02-15T02:38:09;12.60;99.90
16955;DHT22;8594;52.052;8.354;2024-02-15T02:40:36;12.70;99.90
16955;DHT22;8594;52.052;8.354;2024-02-15T02:43:04;12.70;99.90
16955;DHT22;8594;52.052;8.354;2024-02-15T02:45:31;12.70;99.90
16955;DHT22;8594;52.052;8.354;2024-02-15T02:47:59;12.80;99.90
16955;DHT22;8594;52.052;8.354;2024-02-15T02:50:26;12.70;99.90
16955;DHT22;8594;52.052;8.354;2024-02-15T02:52:52;12.70;99.90
16955;DHT22;8594;52.052;8.354;2024-02-15T02:55:19;12.70;99.90
16955;DHT22;8594;52.052;8.354;2024-02-15T02:57:46;12.80;99.90
16955;DHT22;8594;52.052;8.354;2024-02-15T03:00:15;12.70;99.90
16955;DHT22;8594;52.052;8.354;2024-02-15T03:02:43;12.60;99.90
16955;DHT22;8594;52.052;8.354;2024-02-15T03:05:10;12.60;99.90
16955;DHT22;8594;52.052;8.354;2024-02-15T03:07:38;12.70;99.90
16955;DHT22;8594;52.052;8.354;2024-02-15T03:10:06;12.80;99.90
16955;DHT22;8594;52.052;8.354;2024-02-15T03:12:35;12.80;99.90
16955;DHT22;8594;52.052;8.354;2024-02-15T03:15:02;12.70;99.90
16955;DHT22;8594;52.052;8.354;2024-02-15T03:17:31;12.70;99.90
16955;DHT22;8594;52.052;8.354;2024-02-15T03:19:58;12.70;99.90
16955;DHT22;8594;52.052;8.354;2024-02-15T03:22:25;12.80;99.90
16955;DHT22;8594;52.052;8.354;2024-02-15T03:24:52;12.70;99.90
16955;DHT22;8594;52.052;8.354;2024-02-15T03:27:19;12.70;99.90
16955;DHT22;8594;52.052;8.354;2024-02-15T03:29:48;12.60;99.90
16955;DHT22;8594;52.052;8.354;2024-02-15T03:32:16;12.80;99.90
16955;DHT22;8594;52.052;8.354;2024-02-15T03:34:44;12.80;99.90
16955;DHT22;8594;52.052;8.354;2024-02-15T03:37:11;12.90;99.90
16955;DHT22;8594;52.052;8.354;2024-02-15T03:39:38;12.90;99.90
16955;DHT22;8594;52.052;8.354;2024-02-15T03:42:05;13.00;99.90
16955;DHT22;8594;52.052;8.354;2024-02-15T03:44:32;13.10;99.90
16955;DHT22;8594;52.052;8.354;2024-02-15T03:46:58;13.00;99.90
16955;DHT22;8594;52.052;8.354;2024-02-15T03:49:25;13.00;99.90
16955;DHT22;8594;52.052;8.354;2024-02-15T03:51:53;13.00;99.90
16955;DHT22;8594;52.052;8.354;2024-02-15T03:54:20;13.00;99.90
16955;DHT22;8594;52.052;8.354;2024-02-15T03:56:48;13.00;99.90
16955;DHT22;8594;52.052;8.354;2024-02-15T03:59:18;12.90;99.90
16955;DHT22;8594;52.052;8.354;2024-02-15T04:01:50;13.10;99.90
16955;DHT22;8594;52.052;8.354;2024-02-15T04:04:17;13.00;99.90
16955;DHT22;8594;52.052;8.354;2024-02-15T04:06:46;13.10;99.90
16955;DHT22;8594;52.052;8.354;2024-02-15T04:09:14;13.10;99.90
16955;DHT22;8594;52.052;8.354;2024-02-15T04:11:42;13.10;99.90
16955;DHT22;8594;52.052;8.354;2024-02-15T04:14:09;13.00;99.90
16955;DHT22;8594;52.052;8.354;2024-02-15T04:16:36;13.00;99.90
16955;DHT22;8594;52.052;8.354;2024-02-15T04:19:03;13.10;99.90
16955;DHT22;8594;52.052;8.354;2024-02-15T04:21:30;13.10;99.90
16955;DHT22;8594;52.052;8.354;2024-02-15T04:23:57;13.00;99.90
16955;DHT22;8594;52.052;8.354;2024-02-15T04:26:26;13.10;99.90
16955;DHT22;8594;52.052;8.354;2024-02-15T04:28:55;13.10;99.90
16955;DHT22;8594;52.052;8.354;2024-02-15T04:31:22;13.20;99.90
16955;DHT22;8594;52.052;8.354;2024-02-15T04:33:52;13.10;99.90
16955;DHT22;8594;52.052;8.354;2024-02-15T04:36:19;13.20;99.90
16955;DHT22;8594;52.052;8.354;2024-02-15T04:38:49;13.20;99.90
16955;DHT22;8594;52.052;8.354;2024-02-15T04:41:16;13.20;99.90
16955;DHT22;8594;52.052;8.354;2024-02-15T04:43:48;13.20;99.90
16955;DHT22;8594;52.052;8.354;2024-02-15T04:46:15;13.20;99.90
16955;DHT22;8594;52.052;8.354;2024-02-15T04:48:41;13.20;99.90
16955;DHT22;8594;52.052;8.354;2024-02-15T04:51:09;13.30;99.90
16955;DHT22;8594;52.052;8.354;2024-02-15T04:53:37;13.30;99.90
16955;DHT22;8594;52.052;8.354;2024-02-15T04:56:05;13.20;99.90
16955;DHT22;8594;52.052;8.354;2024-02-15T04:58:37;13.10;99.90
16955;DHT22;8594;52.052;8.354;2024-02-15T05:01:12;13.20;99.90
16955;DHT22;8594;52.052;8.354;2024-02-15T05:03:40;13.20;99.90
16955;DHT22;8594;52.052;8.354;2024-02-15T05:06:07;13.40;99.90
16955;DHT22;8594;52.052;8.354;2024-02-15T05:08:35;13.30;99.90
16955;DHT22;8594;52.052;8.354;2024-02-15T05:11:07;13.30;99.90
16955;DHT22;8594;52.052;8.354;2024-02-15T05:13:39;13.40;99.90
16955;DHT22;8594;52.052;8.354;2024-02-15T05:16:06;13.50;99.90
16955;DHT22;8594;52.052;8.354;2024-02-15T05:18:34;13.50;99.90
16955;DHT22;8594;52.052;8.354;2024-02-15T05:21:01;13.50;99.90
16955;DHT22;8594;52.052;8.354;2024-02-15T05:23:29;13.60;99.90
16955;DHT22;8594;52.052;8.354;2024-02-15T05:25:55;13.70;99.90
16955;DHT22;8594;52.052;8.354;2024-02-15T05:28:23;13.80;99.90
16955;DHT22;8594;52.052;8.354;2024-02-15T05:31:09;13.80;99.90
16955;DHT22;8594;52.052;8.354;2024-02-15T05:33:38;13.90;99.90
16955;DHT22;8594;52.052;8.354;2024-02-15T05:36:08;13.90;99.90
16955;DHT22;8594;52.052;8.354;2024-02-15T05:38:35;13.70;99.90
16955;DHT22;8594;52.052;8.354;2024-02-15T05:41:02;13.60;99.90
16955;DHT22;8594;52.052;8.354;2024-02-15T05:43:29;13.60;99.90
16955;DHT22;8594;52.052;8.354;2024-02-15T05:45:57;13.60;99.90
16955;DHT22;8594;52.052;8.354;2024-02-15T05:48:24;13.60;99.90
16955;DHT22;8594;52.052;8.354;2024-02-15T05:50:52;13.60;99.90
16955;DHT22;8594;52.052;8.354;2024-02-15T05:53:19;13.60;99.90
16955;DHT22;8594;52.052;8.354;2024-02-15T05:55:46;13.50;99.90
16955;DHT22;8594;52.052;8.354;2024-02-15T05:58:15;13.50;99.90
16955;DHT22;8594;52.052;8.354;2024-02-15T06:00:42;13.30;99.90
16955;DHT22;8594;52.052;8.354;2024-02-15T06:03:10;13.40;99.90
16955;DHT22;8594;52.052;8.354;2024-02-15T06:05:37;13.60;99.90
16955;DHT22;8594;52.052;8.354;2024-02-15T06:08:06;13.50;99.90
16955;DHT22;8594;52.052;8.354;2024-02-15T06:10:33;13.40;99.90
16955;DHT22;8594;52.052;8.354;2024-02-15T06:13:00;13.30;99.90
16955;DHT22;8594;52.052;8.354;2024-02-15T06:15:27;13.40;99.90
16955;DHT22;8594;52.052;8.354;2024-02-15T06:17:53;13.50;99.90
16955;DHT22;8594;52.052;8.354;2024-02-15T06:20:20;13.40;99.90
16955;DHT22;8594;52.052;8.354;2024-02-15T06:22:48;13.30;99.90
16955;DHT22;8594;52.052;8.354;2024-02-15T06:25:18;13.30;99.90
16955;DHT22;8594;52.052;8.354;2024-02-15T06:27:46;13.20;99.90
16955;DHT22;8594;52.052;8.354;2024-02-15T06:30:14;13.20;99.90
16955;DHT22;8594;52.052;8.354;2024-02-15T06:32:59;13.10;99.90
16955;DHT22;8594;52.052;8.354;2024-02-15T06:35:44;13.20;99.90
16955;DHT22;8594;52.052;8.354;2024-02-15T06:38:29;13.20;99.90
16955;DHT22;8594;52.052;8.354;2024-02-15T06:41:14;13.20;99.90
16955;DHT22;8594;52.052;8.354;2024-02-15T06:43:41;13.20;99.90
16955;DHT22;8594;52.052;8.354;2024-02-15T06:46:08;13.30;99.90
16955;DHT22;8594;52.052;8.354;2024-02-15T06:48:36;13.40;99.90
16955;DHT22;8594;52.052;8.354;2024-02-15T06:51:03;13.50;99.90
16955;DHT22;8594;52.052;8.354;2024-02-15T06:53:31;13.50;99.90
16955;DHT22;8594;52.052;8.354;2024-02-15T06:55:57;13.40;99.90
16955;DHT22;8594;52.052;8.354;2024-02-15T06:58:25;13.30;99.90
16955;DHT22;8594;52.052;8.354;2024-02-15T07:00:53;13.20;99.90
16955;DHT22;8594;52.052;8.354;2024-02-15T07:03:20;13.20;99.90
16955;DHT22;8594;52.052;8.354;2024-02-15T07:05:48;13.10;99.90
16955;DHT22;8594;52.052;8.354;2024-02-15T07:08:15;13.00;99.90
16955;DHT22;8594;52.052;8.354;2024-02-15T07:10:42;13.00;99.90
16955;DHT22;8594;52.052;8.354;2024-02-15T07:13:08;13.10;99.90
16955;DHT22;8594;52.052;8.354;2024-02-15T07:15:37;13.10;99.90
16955;DHT22;8594;52.052;8.354;2024-02-15T07:18:04;13.00;99.90
16955;DHT22;8594;52.052;8.354;2024-02-15T07:20:32;13.20;99.90
16955;DHT22;8594;52.052;8.354;2024-02-15T07:22:59;13.20;99.90
16955;DHT22;8594;52.052;8.354;2024-02-15T07:25:26;13.30;99.90
16955;DHT22;8594;52.052;8.354;2024-02-15T07:27:53;13.30;99.90
16955;DHT22;8594;52.052;8.354;2024-02-15T07:30:20;13.30;99.90
16955;DHT22;8594;52.052;8.354;2024-02-15T07:32:49;13.30;99.90
16955;DHT22;8594;52.052;8.354;2024-02-15T07:35:16;13.20;99.90
16955;DHT22;8594;52.052;8.354;2024-02-15T07:37:51;13.20;99.90
16955;DHT22;8594;52.052;8.354;2024-02-15T07:40:20;13.30;99.90
16955;DHT22;8594;52.052;8.354;2024-02-15T07:42:48;13.20;99.90
16955;DHT22;8594;52.052;8.354;2024-02-15T07:45:15;13.30;99.90
16955;DHT22;8594;52.052;8.354;2024-02-15T07:47:43;13.40;99.90
16955;DHT22;8594;52.052;8.354;2024-02-15T07:50:15;13.50;99.90
16955;DHT22;8594;52.052;8.354;2024-02-15T07:52:45;13.50;99.90
16955;DHT22;8594;52.052;8.354;2024-02-15T07:55:13;13.70;99.90
16955;DHT22;8594;52.052;8.354;2024-02-15T07:57:40;13.50;99.90
16955;DHT22;8594;52.052;8.354;2024-02-15T08:00:07;13.40;99.90
16955;DHT22;8594;52.052;8.354;2024-02-15T08:02:36;13.40;99.90
16955;DHT22;8594;52.052;8.354;2024-02-15T08:05:06;13.50;99.90
16955;DHT22;8594;52.052;8.354;2024-02-15T08:07:37;13.60;99.90
16955;DHT22;8594;52.052;8.354;2024-02-15T08:10:05;13.50;99.90
16955;DHT22;8594;52.052;8.354;2024-02-15T08:12:38;13.50;99.90
16955;DHT22;8594;52.052;8.354;2024-02-15T08:15:07;13.40;99.90
16955;DHT22;8594;52.052;8.354;2024-02-15T08:17:37;13.40;99.90
16955;DHT22;8594;52.052;8.354;2024-02-15T08:20:07;13.50;99.90
16955;DHT22;8594;52.052;8.354;2024-02-15T08:22:35;13.60;99.90
16955;DHT22;8594;52.052;8.354;2024-02-15T08:25:06;13.50;99.90
16955;DHT22;8594;52.052;8.354;2024-02-15T08:27:36;13.20;99.90
16955;DHT22;8594;52.052;8.354;2024-02-15T08:30:08;13.20;99.90
16955;DHT22;8594;52.052;8.354;2024-02-15T08:32:36;13.30;99.90
16955;DHT22;8594;52.052;8.354;2024-02-15T08:35:03;13.50;99.90
16955;DHT22;8594;52.052;8.354;2024-02-15T08:37:31;13.50;99.90
16955;DHT22;8594;52.052;8.354;2024-02-15T08:40:01;13.50;99.90
16955;DHT22;8594;52.052;8.354;2024-02-15T08:42:28;13.40;99.90
16955;DHT22;8594;52.052;8.354;2024-02-15T08:44:54;13.50;99.90
16955;DHT22;8594;52.052;8.354;2024-02-15T08:47:21;13.50;99.90
16955;DHT22;8594;52.052;8.354;2024-02-15T08:49:48;13.50;99.90
16955;DHT22;8594;52.052;8.354;2024-02-15T08:52:15;13.60;99.90
16955;DHT22;8594;52.052;8.354;2024-02-15T08:54:43;13.60;99.90
16955;DHT22;8594;52.052;8.354;2024-02-15T08:57:12;13.60;99.90
16955;DHT22;8594;52.052;8.354;2024-02-15T08:59:39;13.50;99.90
16955;DHT22;8594;52.052;8.354;2024-02-15T09:02:06;13.40;99.90
16955;DHT22;8594;52.052;8.354;2024-02-15T09:04:32;13.40;99.90
16955;DHT22;8594;52.052;8.354;2024-02-15T09:06:59;13.50;99.90
16955;DHT22;8594;52.052;8.354;2024-02-15T09:09:29;13.50;99.90
16955;DHT22;8594;52.052;8.354;2024-02-15T09:11:57;13.50;99.90
16955;DHT22;8594;52.052;8.354;2024-02-15T09:14:25;13.50;99.90
16955;DHT22;8594;52.052;8.354;2024-02-15T09:16:52;13.50;99.90
16955;DHT22;8594;52.052;8.354;2024-02-15T09:19:18;13.60;99.90
16955;DHT22;8594;52.052;8.354;2024-02-15T09:21:45;13.60;99.90
16955;DHT22;8594;52.052;8.354;2024-02-15T09:24:12;13.70;99.90
16955;DHT22;8594;52.052;8.354;2024-02-15T09:26:41;13.70;99.90
16955;DHT22;8594;52.052;8.354;2024-02-15T09:29:08;13.60;99.90
16955;DHT22;8594;52.052;8.354;2024-02-15T09:31:36;13.50;99.90
16955;DHT22;8594;52.052;8.354;2024-02-15T09:34:05;13.40;99.90
16955;DHT22;8594;52.052;8.354;2024-02-15T09:36:34;13.60;99.90
16955;DHT22;8594;52.052;8.354;2024-02-15T09:39:03;13.70;99.90
16955;DHT22;8594;52.052;8.354;2024-02-15T09:41:30;13.70;99.90
16955;DHT22;8594;52.052;8.354;2024-02-15T09:43:58;13.60;99.90
16955;DHT22;8594;52.052;8.354;2024-02-15T09:46:26;13.60;99.90
16955;DHT22;8594;52.052;8.354;2024-02-15T09:48:56;13.60;99.90
16955;DHT22;8594;52.052;8.354;2024-02-15T09:51:25;13.50;99.90
16955;DHT22;8594;52.052;8.354;2024-02-15T09:53:52;13.60;99.90
16955;DHT22;8594;52.052;8.354;2024-02-15T09:56:20;13.70;99.90
16955;DHT22;8594;52.052;8.354;2024-02-15T09:58:49;13.80;99.90
16955;DHT22;8594;52.052;8.354;2024-02-15T10:01:20;13.80;99.90
16955;DHT22;8594;52.052;8.354;2024-02-15T10:03:50;13.80;99.90
16955;DHT22;8594;52.052;8.354;2024-02-15T10:06:19;13.80;99.90
16955;DHT22;8594;52.052;8.354;2024-02-15T10:08:48;13.90;99.90
16955;DHT22;8594;52.052;8.354;2024-02-15T10:11:14;13.80;99.90
16955;DHT22;8594;52.052;8.354;2024-02-15T10:13:41;13.90;99.90
16955;DHT22;8594;52.052;8.354;2024-02-15T10:16:16;13.80;99.90
16955;DHT22;8594;52.052;8.354;2024-02-15T10:18:44;13.70;99.90
16955;DHT22;8594;52.052;8.354;2024-02-15T10:21:26;13.60;99.90
16955;DHT22;8594;52.052;8.354;2024-02-15T10:24:04;13.60;99.90
16955;DHT22;8594;52.052;8.354;2024-02-15T10:26:31;13.70;99.90
16955;DHT22;8594;52.052;8.354;2024-02-15T10:29:07;13.70;99.90
16955;DHT22;8594;52.052;8.354;2024-02-15T10:31:36;13.70;99.90
16955;DHT22;8594;52.052;8.354;2024-02-15T10:34:06;13.80;99.90
16955;DHT22;8594;52.052;8.354;2024-02-15T10:36:35;13.90;99.90
16955;DHT22;8594;52.052;8.354;2024-02-15T10:39:11;14.00;99.90
16955;DHT22;8594;52.052;8.354;2024-02-15T10:41:43;14.00;99.90
16955;DHT22;8594;52.052;8.354;2024-02-15T10:44:14;13.90;99.90
16955;DHT22;8594;52.052;8.354;2024-02-15T10:46:44;13.70;99.90
16955;DHT22;8594;52.052;8.354;2024-02-15T10:49:12;13.60;99.90
16955;DHT22;8594;52.052;8.354;2024-02-15T10:51:43;13.60;99.90
16955;DHT22;8594;52.052;8.354;2024-02-15T10:54:12;13.60;99.90
16955;DHT22;8594;52.052;8.354;2024-02-15T10:56:43;13.60;99.90
16955;DHT22;8594;52.052;8.354;2024-02-15T10:59:17;13.50;99.90
16955;DHT22;8594;52.052;8.354;2024-02-15T11:01:45;13.50;99.90
16955;DHT22;8594;52.052;8.354;2024-02-15T11:04:15;13.40;99.90
16955;DHT22;8594;52.052;8.354;2024-02-15T11:06:43;13.60;99.90
16955;DHT22;8594;52.052;8.354;2024-02-15T11:09:11;13.50;99.90
16955;DHT22;8594;52.052;8.354;2024-02-15T11:11:39;13.50;99.90
16955;DHT22;8594;52.052;8.354;2024-02-15T11:14:23;13.40;99.90
16955;DHT22;8594;52.052;8.354;2024-02-15T11:16:52;13.40;99.90
16955;DHT22;8594;52.052;8.354;2024-02-15T11:19:40;13.40;99.90
16955;DHT22;8594;52.052;8.354;2024-02-15T11:22:09;13.20;99.90
16955;DHT22;8594;52.052;8.354;2024-02-15T11:24:37;13.20;99.90
16955;DHT22;8594;52.052;8.354;2024-02-15T11:27:12;13.20;99.90
16955;DHT22;8594;52.052;8.354;2024-02-15T11:29:50;13.30;99.90
16955;DHT22;8594;52.052;8.354;2024-02-15T11:32:38;13.20;99.90
16955;DHT22;8594;52.052;8.354;2024-02-15T11:35:09;13.20;99.90
16955;DHT22;8594;52.052;8.354;2024-02-15T11:37:52;13.20;99.90
16955;DHT22;8594;52.052;8.354;2024-02-15T11:40:21;13.10;99.90
16955;DHT22;8594;52.052;8.354;2024-02-15T11:42:50;13.10;99.90
16955;DHT22;8594;52.052;8.354;2024-02-15T11:45:18;13.10;99.90
16955;DHT22;8594;52.052;8.354;2024-02-15T11:47:50;13.20;99.90
16955;DHT22;8594;52.052;8.354;2024-02-15T11:50:19;13.20;99.90
16955;DHT22;8594;52.052;8.354;2024-02-15T11:52:48;13.20;99.90
16955;DHT22;8594;52.052;8.354;2024-02-15T11:55:18;13.20;99.90
16955;DHT22;8594;52.052;8.354;2024-02-15T11:57:56;13.40;99.90
16955;DHT22;8594;52.052;8.354;2024-02-15T12:00:30;13.50;99.90
16955;DHT22;8594;52.052;8.354;2024-02-15T12:03:16;13.50;99.90
16955;DHT22;8594;52.052;8.354;2024-02-15T12:06:01;13.50;99.90
16955;DHT22;8594;52.052;8.354;2024-02-15T12:08:46;13.60;99.90
16955;DHT22;8594;52.052;8.354;2024-02-15T12:11:47;13.60;99.90
16955;DHT22;8594;52.052;8.354;2024-02-15T12:14:31;13.60;99.90
16955;DHT22;8594;52.052;8.354;2024-02-15T12:17:16;13.60;99.90
16955;DHT22;8594;52.052;8.354;2024-02-15T12:20:02;13.60;99.90
16955;DHT22;8594;52.052;8.354;2024-02-15T12:22:35;13.60;99.90
16955;DHT22;8594;52.052;8.354;2024-02-15T12:25:06;13.50;99.90
16955;DHT22;8594;52.052;8.354;2024-02-15T12:27:38;13.60;99.90
16955;DHT22;8594;52.052;8.354;2024-02-15T12:30:07;13.60;99.90
16955;DHT22;8594;52.052;8.354;2024-02-15T12:32:39;13.70;99.90
16955;DHT22;8594;52.052;8.354;2024-02-15T12:35:10;13.70;99.90
16955;DHT22;8594;52.052;8.354;2024-02-15T12:37:41;13.70;99.90
16955;DHT22;8594;52.052;8.354;2024-02-15T12:40:11;13.70;99.90
16955;DHT22;8594;52.052;8.354;2024-02-15T12:42:42;13.70;99.90
16955;DHT22;8594;52.052;8.354;2024-02-15T12:45:15;13.70;99.90
16955;DHT22;8594;52.052;8.354;2024-02-15T12:47:46;13.80;99.90
16955;DHT22;8594;52.052;8.354;2024-02-15T12:50:15;14.00;99.90
16955;DHT22;8594;52.052;8.354;2024-02-15T12:52:45;14.10;99.90
16955;DHT22;8594;52.052;8.354;2024-02-15T12:55:14;14.10;99.90
16955;DHT22;8594;52.052;8.354;2024-02-15T12:57:45;14.00;99.90
16955;DHT22;8594;52.052;8.354;2024-02-15T13:00:17;14.00;99.90
16955;DHT22;8594;52.052;8.354;2024-02-15T13:02:47;14.10;99.90
16955;DHT22;8594;52.052;8.354;2024-02-15T13:05:15;14.10;99.90
16955;DHT22;8594;52.052;8.354;2024-02-15T13:07:44;14.20;99.90
16955;DHT22;8594;52.052;8.354;2024-02-15T13:10:10;14.20;99.90
16955;DHT22;8594;52.052;8.354;2024-02-15T13:12:40;14.30;99.90
16955;DHT22;8594;52.052;8.354;2024-02-15T13:15:12;14.40;99.90
16955;DHT22;8594;52.052;8.354;2024-02-15T13:17:43;14.50;99.90
16955;DHT22;8594;52.052;8.354;2024-02-15T13:20:11;14.50;99.90
16955;DHT22;8594;52.052;8.354;2024-02-15T13:22:39;14.50;99.90
16955;DHT22;8594;52.052;8.354;2024-02-15T13:25:07;14.50;99.90
16955;DHT22;8594;52.052;8.354;2024-02-15T13:27:35;14.40;99.90
16955;DHT22;8594;52.052;8.354;2024-02-15T13:30:04;14.40;99.90
16955;DHT22;8594;52.052;8.354;2024-02-15T13:32:35;14.40;99.90
16955;DHT22;8594;52.052;8.354;2024-02-15T13:35:04;14.50;99.90
16955;DHT22;8594;52.052;8.354;2024-02-15T13:37:40;14.50;99.90
16955;DHT22;8594;52.052;8.354;2024-02-15T13:40:10;14.50;99.90
16955;DHT22;8594;52.052;8.354;2024-02-15T13:42:41;14.50;99.90
16955;DHT22;8594;52.052;8.354;2024-02-15T13:45:12;14.60;99.90
16955;DHT22;8594;52.052;8.354;2024-02-15T13:47:44;14.50;99.90
16955;DHT22;8594;52.052;8.354;2024-02-15T13:50:12;14.50;99.90
16955;DHT22;8594;52.052;8.354;2024-02-15T13:52:40;14.50;99.90
16955;DHT22;8594;52.052;8.354;2024-02-15T13:55:09;14.70;99.90
16955;DHT22;8594;52.052;8.354;2024-02-15T13:57:37;14.60;99.90
16955;DHT22;8594;52.052;8.354;2024-02-15T14:00:05;14.80;99.90
16955;DHT22;8594;52.052;8.354;2024-02-15T14:02:40;14.80;99.90
16955;DHT22;8594;52.052;8.354;2024-02-15T14:05:08;14.80;99.90
16955;DHT22;8594;52.052;8.354;2024-02-15T14:07:37;14.80;99.90
16955;DHT22;8594;52.052;8.354;2024-02-15T14:10:05;14.80;99.90
16955;DHT22;8594;52.052;8.354;2024-02-15T14:12:32;14.80;99.90
16955;DHT22;8594;52.052;8.354;2024-02-15T14:14:59;14.90;99.90
16955;DHT22;8594;52.052;8.354;2024-02-15T14:17:26;14.90;99.90
16955;DHT22;8594;52.052;8.354;2024-02-15T14:19:55;14.80;99.90
16955;DHT22;8594;52.052;8.354;2024-02-15T14:22:23;14.90;99.90
16955;DHT22;8594;52.052;8.354;2024-02-15T14:24:53;15.00;99.90
16955;DHT22;8594;52.052;8.354;2024-02-15T14:27:20;15.00;99.90
16955;DHT22;8594;52.052;8.354;2024-02-15T14:29:47;14.90;99.90
16955;DHT22;8594;52.052;8.354;2024-02-15T14:32:28;15.20;99.90
16955;DHT22;8594;52.052;8.354;2024-02-15T14:35:13;15.20;99.90
16955;DHT22;8594;52.052;8.354;2024-02-15T14:37:42;15.20;99.90
16955;DHT22;8594;52.052;8.354;2024-02-15T14:40:10;15.10;99.90
16955;DHT22;8594;52.052;8.354;2024-02-15T14:42:40;15.10;99.90
16955;DHT22;8594;52.052;8.354;2024-02-15T14:45:08;15.20;99.90
16955;DHT22;8594;52.052;8.354;2024-02-15T14:47:36;15.20;99.90
16955;DHT22;8594;52.052;8.354;2024-02-15T14:50:03;15.20;99.90
16955;DHT22;8594;52.052;8.354;2024-02-15T14:52:34;15.10;99.90
16955;DHT22;8594;52.052;8.354;2024-02-15T14:55:03;15.20;99.90
16955;DHT22;8594;52.052;8.354;2024-02-15T14:57:30;15.20;99.90
16955;DHT22;8594;52.052;8.354;2024-02-15T14:59:58;15.30;99.90
16955;DHT22;8594;52.052;8.354;2024-02-15T15:02:25;15.20;99.90
16955;DHT22;8594;52.052;8.354;2024-02-15T15:04:52;15.10;99.90
16955;DHT22;8594;52.052;8.354;2024-02-15T15:07:46;15.10;99.90
16955;DHT22;8594;52.052;8.354;2024-02-15T15:10:30;15.10;99.90
16955;DHT22;8594;52.052;8.354;2024-02-15T15:13:15;15.10;99.90
16955;DHT22;8594;52.052;8.354;2024-02-15T15:15:43;15.20;99.90
16955;DHT22;8594;52.052;8.354;2024-02-15T15:18:11;15.20;99.90
16955;DHT22;8594;52.052;8.354;2024-02-15T15:20:38;15.30;99.90
16955;DHT22;8594;52.052;8.354;2024-02-15T15:23:06;15.20;99.90
16955;DHT22;8594;52.052;8.354;2024-02-15T15:25:34;15.30;99.90
16955;DHT22;8594;52.052;8.354;2024-02-15T15:28:02;15.30;99.90
16955;DHT22;8594;52.052;8.354;2024-02-15T15:30:30;15.40;99.90
16955;DHT22;8594;52.052;8.354;2024-02-15T15:32:57;15.40;99.90
16955;DHT22;8594;52.052;8.354;2024-02-15T15:35:26;15.40;99.90
16955;DHT22;8594;52.052;8.354;2024-02-15T15:37:54;15.40;99.90
16955;DHT22;8594;52.052;8.354;2024-02-15T15:40:25;15.30;99.90
16955;DHT22;8594;52.052;8.354;2024-02-15T15:42:52;15.40;99.90
16955;DHT22;8594;52.052;8.354;2024-02-15T15:45:20;15.30;99.90
16955;DHT22;8594;52.052;8.354;2024-02-15T15:47:47;15.30;99.90
16955;DHT22;8594;52.052;8.354;2024-02-15T15:50:14;15.20;99.90
16955;DHT22;8594;52.052;8.354;2024-02-15T15:52:42;15.20;99.90
16955;DHT22;8594;52.052;8.354;2024-02-15T15:55:10;15.30;99.90
16955;DHT22;8594;52.052;8.354;2024-02-15T15:57:39;15.30;99.90